sensor_id;sensor_type;location;lat;lon;timestamp;P1;durP1;ratioP1;P2;durP2;ratioP2
67941;SDS011;54731;42.600;23.476;2023-11-21T00:00:25;16.40;;;6.73;;
67941;SDS011;54731;42.600;23.476;2023-11-21T00:02:50;17.02;;;7.40;;
67941;SDS011;54731;42.600;23.476;2023-11-21T00:05:15;19.60;;;8.70;;
67941;SDS011;54731;42.600;23.476;2023-11-21T00:07:41;15.37;;;6.13;;
67941;SDS011;54731;42.600;23.476;2023-11-21T00:10:07;15.48;;;6.82;;
67941;SDS011;54731;42.600;23.476;2023-11-21T00:12:33;16.83;;;6.90;;
67941;SDS011;54731;42.600;23.476;2023-11-21T00:15:02;13.68;;;6.78;;
67941;SDS011;54731;42.600;23.476;2023-11-21T00:17:27;9.80;;;4.95;;
67941;SDS011;54731;42.600;23.476;2023-11-21T00:19:53;10.17;;;4.03;;
67941;SDS011;54731;42.600;23.476;2023-11-21T00:22:18;6.70;;;3.40;;
67941;SDS011;54731;42.600;23.476;2023-11-21T00:24:45;6.93;;;2.90;;
67941;SDS011;54731;42.600;23.476;2023-11-21T00:27:10;7.25;;;2.80;;
67941;SDS011;54731;42.600;23.476;2023-11-21T00:29:35;3.73;;;2.13;;
67941;SDS011;54731;42.600;23.476;2023-11-21T00:32:01;4.77;;;2.00;;
67941;SDS011;54731;42.600;23.476;2023-11-21T00:34:26;3.93;;;2.00;;
67941;SDS011;54731;42.600;23.476;2023-11-21T00:36:52;4.45;;;2.42;;
67941;SDS011;54731;42.600;23.476;2023-11-21T00:39:17;5.20;;;2.90;;
67941;SDS011;54731;42.600;23.476;2023-11-21T00:41:43;6.70;;;3.07;;
67941;SDS011;54731;42.600;23.476;2023-11-21T00:44:08;6.27;;;3.13;;
67941;SDS011;54731;42.600;23.476;2023-11-21T00:46:33;10.03;;;3.30;;
67941;SDS011;54731;42.600;23.476;2023-11-21T00:48:58;9.73;;;2.90;;
67941;SDS011;54731;42.600;23.476;2023-11-21T00:51:24;8.13;;;3.67;;
67941;SDS011;54731;42.600;23.476;2023-11-21T00:53:49;4.87;;;2.67;;
67941;SDS011;54731;42.600;23.476;2023-11-21T00:56:14;6.00;;;2.78;;
67941;SDS011;54731;42.600;23.476;2023-11-21T00:58:40;4.85;;;2.65;;
67941;SDS011;54731;42.600;23.476;2023-11-21T01:01:05;6.30;;;3.53;;
67941;SDS011;54731;42.600;23.476;2023-11-21T01:03:30;6.97;;;3.17;;
67941;SDS011;54731;42.600;23.476;2023-11-21T01:05:56;6.60;;;3.00;;
67941;SDS011;54731;42.600;23.476;2023-11-21T01:08:21;5.10;;;2.33;;
67941;SDS011;54731;42.600;23.476;2023-11-21T01:10:46;5.67;;;2.40;;
67941;SDS011;54731;42.600;23.476;2023-11-21T01:13:12;5.27;;;2.20;;
67941;SDS011;54731;42.600;23.476;2023-11-21T01:15:37;7.18;;;2.78;;
67941;SDS011;54731;42.600;23.476;2023-11-21T01:18:02;5.90;;;2.87;;
67941;SDS011;54731;42.600;23.476;2023-11-21T01:20:27;4.93;;;2.40;;
67941;SDS011;54731;42.600;23.476;2023-11-21T01:22:53;3.93;;;1.77;;
67941;SDS011;54731;42.600;23.476;2023-11-21T01:25:18;5.40;;;2.53;;
67941;SDS011;54731;42.600;23.476;2023-11-21T01:27:43;4.80;;;2.07;;
67941;SDS011;54731;42.600;23.476;2023-11-21T01:30:09;4.10;;;2.13;;
67941;SDS011;54731;42.600;23.476;2023-11-21T01:32:34;5.32;;;2.33;;
67941;SDS011;54731;42.600;23.476;2023-11-21T01:35:00;10.20;;;3.03;;
67941;SDS011;54731;42.600;23.476;2023-11-21T01:37:26;6.63;;;2.78;;
67941;SDS011;54731;42.600;23.476;2023-11-21T01:39:51;6.53;;;2.53;;
67941;SDS011;54731;42.600;23.476;2023-11-21T01:42:16;6.63;;;2.23;;
67941;SDS011;54731;42.600;23.476;2023-11-21T01:44:41;4.83;;;2.23;;
67941;SDS011;54731;42.600;23.476;2023-11-21T01:47:07;5.60;;;2.50;;
67941;SDS011;54731;42.600;23.476;2023-11-21T01:49:33;4.15;;;2.13;;
67941;SDS011;54731;42.600;23.476;2023-11-21T01:51:59;3.60;;;2.07;;
67941;SDS011;54731;42.600;23.476;2023-11-21T01:54:25;6.88;;;2.70;;
67941;SDS011;54731;42.600;23.476;2023-11-21T01:56:50;6.15;;;3.00;;
67941;SDS011;54731;42.600;23.476;2023-11-21T01:59:19;5.88;;;3.15;;
67941;SDS011;54731;42.600;23.476;2023-11-21T02:01:46;4.30;;;2.30;;
67941;SDS011;54731;42.600;23.476;2023-11-21T02:04:11;3.27;;;1.87;;
67941;SDS011;54731;42.600;23.476;2023-11-21T02:06:37;4.13;;;1.90;;
67941;SDS011;54731;42.600;23.476;2023-11-21T02:09:02;3.60;;;1.73;;
67941;SDS011;54731;42.600;23.476;2023-11-21T02:11:28;4.32;;;1.85;;
67941;SDS011;54731;42.600;23.476;2023-11-21T02:13:53;5.43;;;1.73;;
67941;SDS011;54731;42.600;23.476;2023-11-21T02:16:18;6.20;;;2.40;;
67941;SDS011;54731;42.600;23.476;2023-11-21T02:18:44;4.27;;;2.40;;
67941;SDS011;54731;42.600;23.476;2023-11-21T02:21:09;4.77;;;2.60;;
67941;SDS011;54731;42.600;23.476;2023-11-21T02:23:35;7.93;;;2.67;;
67941;SDS011;54731;42.600;23.476;2023-11-21T02:26:00;5.43;;;2.07;;
67941;SDS011;54731;42.600;23.476;2023-11-21T02:28:25;4.25;;;1.90;;
67941;SDS011;54731;42.600;23.476;2023-11-21T02:30:53;3.37;;;1.80;;
67941;SDS011;54731;42.600;23.476;2023-11-21T02:33:19;3.72;;;1.40;;
67941;SDS011;54731;42.600;23.476;2023-11-21T02:35:44;3.55;;;1.45;;
67941;SDS011;54731;42.600;23.476;2023-11-21T02:38:09;3.73;;;1.30;;
67941;SDS011;54731;42.600;23.476;2023-11-21T02:40:35;6.57;;;3.17;;
67941;SDS011;54731;42.600;23.476;2023-11-21T02:43:00;24.03;;;7.70;;
67941;SDS011;54731;42.600;23.476;2023-11-21T02:45:25;13.30;;;5.27;;
67941;SDS011;54731;42.600;23.476;2023-11-21T02:47:51;12.43;;;5.70;;
67941;SDS011;54731;42.600;23.476;2023-11-21T02:50:16;8.20;;;3.10;;
67941;SDS011;54731;42.600;23.476;2023-11-21T02:52:41;4.67;;;2.07;;
67941;SDS011;54731;42.600;23.476;2023-11-21T02:55:07;4.00;;;2.00;;
67941;SDS011;54731;42.600;23.476;2023-11-21T02:57:32;9.98;;;4.40;;
67941;SDS011;54731;42.600;23.476;2023-11-21T02:59:58;8.03;;;3.17;;
67941;SDS011;54731;42.600;23.476;2023-11-21T03:02:23;4.03;;;2.47;;
67941;SDS011;54731;42.600;23.476;2023-11-21T03:04:49;3.57;;;1.73;;
67941;SDS011;54731;42.600;23.476;2023-11-21T03:07:14;3.87;;;2.30;;
67941;SDS011;54731;42.600;23.476;2023-11-21T03:09:40;5.00;;;2.47;;
67941;SDS011;54731;42.600;23.476;2023-11-21T03:12:05;6.97;;;3.03;;
67941;SDS011;54731;42.600;23.476;2023-11-21T03:14:31;5.83;;;2.90;;
67941;SDS011;54731;42.600;23.476;2023-11-21T03:16:56;8.73;;;2.20;;
67941;SDS011;54731;42.600;23.476;2023-11-21T03:19:21;3.87;;;1.83;;
67941;SDS011;54731;42.600;23.476;2023-11-21T03:21:47;2.73;;;1.30;;
67941;SDS011;54731;42.600;23.476;2023-11-21T03:24:12;3.60;;;1.40;;
67941;SDS011;54731;42.600;23.476;2023-11-21T03:26:37;4.27;;;1.30;;
67941;SDS011;54731;42.600;23.476;2023-11-21T03:29:03;3.13;;;1.38;;
67941;SDS011;54731;42.600;23.476;2023-11-21T03:31:28;9.37;;;2.37;;
67941;SDS011;54731;42.600;23.476;2023-11-21T03:33:53;7.03;;;2.90;;
67941;SDS011;54731;42.600;23.476;2023-11-21T03:36:19;4.90;;;2.00;;
67941;SDS011;54731;42.600;23.476;2023-11-21T03:38:44;5.65;;;1.90;;
67941;SDS011;54731;42.600;23.476;2023-11-21T03:41:10;6.47;;;2.50;;
67941;SDS011;54731;42.600;23.476;2023-11-21T03:43:36;5.77;;;2.43;;
67941;SDS011;54731;42.600;23.476;2023-11-21T03:46:02;6.07;;;2.73;;
67941;SDS011;54731;42.600;23.476;2023-11-21T03:48:27;7.75;;;2.85;;
67941;SDS011;54731;42.600;23.476;2023-11-21T03:50:52;5.43;;;2.47;;
67941;SDS011;54731;42.600;23.476;2023-11-21T03:53:18;4.17;;;2.20;;
67941;SDS011;54731;42.600;23.476;2023-11-21T03:55:43;3.27;;;1.50;;
67941;SDS011;54731;42.600;23.476;2023-11-21T03:58:08;5.23;;;1.80;;
67941;SDS011;54731;42.600;23.476;2023-11-21T04:00:34;4.37;;;1.87;;
67941;SDS011;54731;42.600;23.476;2023-11-21T04:02:59;3.28;;;1.80;;
67941;SDS011;54731;42.600;23.476;2023-11-21T04:05:24;2.13;;;1.30;;
67941;SDS011;54731;42.600;23.476;2023-11-21T04:07:50;8.57;;;3.83;;
67941;SDS011;54731;42.600;23.476;2023-11-21T04:10:15;5.40;;;3.20;;
67941;SDS011;54731;42.600;23.476;2023-11-21T04:12:40;4.93;;;2.00;;
67941;SDS011;54731;42.600;23.476;2023-11-21T04:15:06;4.03;;;2.00;;
67941;SDS011;54731;42.600;23.476;2023-11-21T04:17:32;23.27;;;9.98;;
67941;SDS011;54731;42.600;23.476;2023-11-21T04:19:57;19.10;;;7.70;;
67941;SDS011;54731;42.600;23.476;2023-11-21T04:22:22;10.00;;;5.30;;
67941;SDS011;54731;42.600;23.476;2023-11-21T04:24:47;10.03;;;5.47;;
67941;SDS011;54731;42.600;23.476;2023-11-21T04:27:13;5.90;;;3.17;;
67941;SDS011;54731;42.600;23.476;2023-11-21T04:29:38;10.15;;;3.60;;
67941;SDS011;54731;42.600;23.476;2023-11-21T04:32:03;9.10;;;4.50;;
67941;SDS011;54731;42.600;23.476;2023-11-21T04:34:29;9.33;;;3.53;;
67941;SDS011;54731;42.600;23.476;2023-11-21T04:36:54;5.40;;;2.20;;
67941;SDS011;54731;42.600;23.476;2023-11-21T04:39:20;2.47;;;1.50;;
67941;SDS011;54731;42.600;23.476;2023-11-21T04:41:45;1.93;;;1.20;;
67941;SDS011;54731;42.600;23.476;2023-11-21T04:44:10;3.70;;;1.27;;
67941;SDS011;54731;42.600;23.476;2023-11-21T04:46:35;4.57;;;1.00;;
67941;SDS011;54731;42.600;23.476;2023-11-21T04:49:01;2.50;;;1.10;;
67941;SDS011;54731;42.600;23.476;2023-11-21T04:51:26;1.93;;;0.77;;
67941;SDS011;54731;42.600;23.476;2023-11-21T04:53:51;3.07;;;1.07;;
67941;SDS011;54731;42.600;23.476;2023-11-21T04:56:17;4.23;;;1.40;;
67941;SDS011;54731;42.600;23.476;2023-11-21T04:58:42;2.70;;;1.23;;
67941;SDS011;54731;42.600;23.476;2023-11-21T05:01:07;2.40;;;0.73;;
67941;SDS011;54731;42.600;23.476;2023-11-21T05:03:33;3.38;;;1.65;;
67941;SDS011;54731;42.600;23.476;2023-11-21T05:05:59;5.17;;;2.10;;
67941;SDS011;54731;42.600;23.476;2023-11-21T05:08:25;4.07;;;2.00;;
67941;SDS011;54731;42.600;23.476;2023-11-21T05:10:50;4.70;;;2.43;;
67941;SDS011;54731;42.600;23.476;2023-11-21T05:13:15;7.27;;;4.00;;
67941;SDS011;54731;42.600;23.476;2023-11-21T05:15:40;6.73;;;3.07;;
67941;SDS011;54731;42.600;23.476;2023-11-21T05:18:06;3.10;;;2.13;;
67941;SDS011;54731;42.600;23.476;2023-11-21T05:20:31;4.33;;;1.30;;
67941;SDS011;54731;42.600;23.476;2023-11-21T05:22:56;2.30;;;1.20;;
67941;SDS011;54731;42.600;23.476;2023-11-21T05:25:23;3.20;;;2.57;;
67941;SDS011;54731;42.600;23.476;2023-11-21T05:27:48;6.75;;;1.40;;
67941;SDS011;54731;42.600;23.476;2023-11-21T05:30:14;4.40;;;2.30;;
67941;SDS011;54731;42.600;23.476;2023-11-21T05:32:39;3.63;;;2.20;;
67941;SDS011;54731;42.600;23.476;2023-11-21T05:35:05;9.43;;;8.48;;
67941;SDS011;54731;42.600;23.476;2023-11-21T05:37:31;8.98;;;5.53;;
67941;SDS011;54731;42.600;23.476;2023-11-21T05:39:56;1.90;;;1.10;;
67941;SDS011;54731;42.600;23.476;2023-11-21T05:42:22;8.13;;;1.37;;
67941;SDS011;54731;42.600;23.476;2023-11-21T05:44:47;21.27;;;6.73;;
67941;SDS011;54731;42.600;23.476;2023-11-21T05:47:13;21.30;;;8.63;;
67941;SDS011;54731;42.600;23.476;2023-11-21T05:49:38;16.25;;;7.68;;
67941;SDS011;54731;42.600;23.476;2023-11-21T05:52:03;21.33;;;9.27;;
67941;SDS011;54731;42.600;23.476;2023-11-21T05:54:29;20.43;;;8.23;;
67941;SDS011;54731;42.600;23.476;2023-11-21T05:56:54;14.77;;;6.60;;
67941;SDS011;54731;42.600;23.476;2023-11-21T05:59:19;50.77;;;8.80;;
67941;SDS011;54731;42.600;23.476;2023-11-21T06:01:45;15.63;;;4.63;;
67941;SDS011;54731;42.600;23.476;2023-11-21T06:04:10;12.82;;;5.57;;
67941;SDS011;54731;42.600;23.476;2023-11-21T06:06:36;20.23;;;7.30;;
67941;SDS011;54731;42.600;23.476;2023-11-21T06:09:01;14.60;;;6.73;;
67941;SDS011;54731;42.600;23.476;2023-11-21T06:11:27;12.17;;;5.77;;
67941;SDS011;54731;42.600;23.476;2023-11-21T06:13:52;12.27;;;6.07;;
67941;SDS011;54731;42.600;23.476;2023-11-21T06:16:17;16.23;;;7.53;;
67941;SDS011;54731;42.600;23.476;2023-11-21T06:18:43;15.55;;;8.25;;
67941;SDS011;54731;42.600;23.476;2023-11-21T06:21:11;16.27;;;8.00;;
67941;SDS011;54731;42.600;23.476;2023-11-21T06:23:37;17.35;;;9.43;;
67941;SDS011;54731;42.600;23.476;2023-11-21T06:26:03;18.83;;;9.03;;
67941;SDS011;54731;42.600;23.476;2023-11-21T06:28:28;20.40;;;10.20;;
67941;SDS011;54731;42.600;23.476;2023-11-21T06:30:53;12.63;;;7.20;;
67941;SDS011;54731;42.600;23.476;2023-11-21T06:33:19;12.83;;;6.70;;
67941;SDS011;54731;42.600;23.476;2023-11-21T06:35:44;17.83;;;9.67;;
67941;SDS011;54731;42.600;23.476;2023-11-21T06:38:10;19.90;;;11.05;;
67941;SDS011;54731;42.600;23.476;2023-11-21T06:40:35;20.10;;;12.33;;
67941;SDS011;54731;42.600;23.476;2023-11-21T06:43:01;24.67;;;10.87;;
67941;SDS011;54731;42.600;23.476;2023-11-21T06:45:26;20.53;;;12.23;;
67941;SDS011;54731;42.600;23.476;2023-11-21T06:47:51;18.33;;;10.93;;
67941;SDS011;54731;42.600;23.476;2023-11-21T06:50:17;20.97;;;11.07;;
67941;SDS011;54731;42.600;23.476;2023-11-21T06:52:42;21.42;;;10.95;;
67941;SDS011;54731;42.600;23.476;2023-11-21T06:55:08;26.10;;;14.47;;
67941;SDS011;54731;42.600;23.476;2023-11-21T06:57:33;30.13;;;15.27;;
67941;SDS011;54731;42.600;23.476;2023-11-21T06:59:58;25.60;;;13.37;;
67941;SDS011;54731;42.600;23.476;2023-11-21T07:02:24;25.48;;;13.50;;
67941;SDS011;54731;42.600;23.476;2023-11-21T07:04:49;36.77;;;20.53;;
67941;SDS011;54731;42.600;23.476;2023-11-21T07:07:15;39.80;;;20.43;;
67941;SDS011;54731;42.600;23.476;2023-11-21T07:09:40;47.13;;;25.03;;
67941;SDS011;54731;42.600;23.476;2023-11-21T07:12:05;38.53;;;22.33;;
67941;SDS011;54731;42.600;23.476;2023-11-21T07:14:31;32.92;;;18.38;;
67941;SDS011;54731;42.600;23.476;2023-11-21T07:16:56;37.63;;;18.07;;
67941;SDS011;54731;42.600;23.476;2023-11-21T07:19:22;27.37;;;15.17;;
67941;SDS011;54731;42.600;23.476;2023-11-21T07:21:47;33.37;;;16.43;;
67941;SDS011;54731;42.600;23.476;2023-11-21T07:24:12;27.90;;;16.20;;
67941;SDS011;54731;42.600;23.476;2023-11-21T07:26:37;37.43;;;21.37;;
67941;SDS011;54731;42.600;23.476;2023-11-21T07:29:03;42.67;;;24.70;;
67941;SDS011;54731;42.600;23.476;2023-11-21T07:31:28;33.30;;;18.52;;
67941;SDS011;54731;42.600;23.476;2023-11-21T07:33:54;33.37;;;17.87;;
67941;SDS011;54731;42.600;23.476;2023-11-21T07:36:19;35.07;;;18.83;;
67941;SDS011;54731;42.600;23.476;2023-11-21T07:38:45;34.17;;;18.63;;
67941;SDS011;54731;42.600;23.476;2023-11-21T07:41:10;29.88;;;17.92;;
67941;SDS011;54731;42.600;23.476;2023-11-21T07:43:36;29.67;;;15.97;;
67941;SDS011;54731;42.600;23.476;2023-11-21T07:46:02;27.75;;;14.40;;
67941;SDS011;54731;42.600;23.476;2023-11-21T07:48:28;27.25;;;12.98;;
67941;SDS011;54731;42.600;23.476;2023-11-21T07:50:55;24.53;;;11.70;;
67941;SDS011;54731;42.600;23.476;2023-11-21T07:53:21;23.70;;;12.23;;
67941;SDS011;54731;42.600;23.476;2023-11-21T07:55:46;22.83;;;12.17;;
67941;SDS011;54731;42.600;23.476;2023-11-21T07:58:11;22.63;;;11.27;;
67941;SDS011;54731;42.600;23.476;2023-11-21T08:00:36;29.63;;;12.50;;
67941;SDS011;54731;42.600;23.476;2023-11-21T08:03:02;29.83;;;13.63;;
67941;SDS011;54731;42.600;23.476;2023-11-21T08:05:27;31.67;;;14.83;;
67941;SDS011;54731;42.600;23.476;2023-11-21T08:07:53;32.72;;;16.33;;
67941;SDS011;54731;42.600;23.476;2023-11-21T08:10:18;36.23;;;18.10;;
67941;SDS011;54731;42.600;23.476;2023-11-21T08:12:43;28.03;;;16.17;;
67941;SDS011;54731;42.600;23.476;2023-11-21T08:15:09;26.83;;;13.33;;
67941;SDS011;54731;42.600;23.476;2023-11-21T08:17:34;24.80;;;13.00;;
67941;SDS011;54731;42.600;23.476;2023-11-21T08:19:59;26.77;;;14.77;;
67941;SDS011;54731;42.600;23.476;2023-11-21T08:22:25;28.33;;;15.40;;
67941;SDS011;54731;42.600;23.476;2023-11-21T08:24:50;29.27;;;12.40;;
67941;SDS011;54731;42.600;23.476;2023-11-21T08:27:15;17.45;;;10.23;;
67941;SDS011;54731;42.600;23.476;2023-11-21T08:29:41;29.67;;;14.03;;
67941;SDS011;54731;42.600;23.476;2023-11-21T08:32:07;17.53;;;10.60;;
67941;SDS011;54731;42.600;23.476;2023-11-21T08:34:32;19.10;;;12.13;;
67941;SDS011;54731;42.600;23.476;2023-11-21T08:36:57;23.70;;;12.20;;
67941;SDS011;54731;42.600;23.476;2023-11-21T08:39:23;24.23;;;13.90;;
67941;SDS011;54731;42.600;23.476;2023-11-21T08:41:48;30.57;;;15.73;;
67941;SDS011;54731;42.600;23.476;2023-11-21T08:44:13;42.80;;;20.13;;
67941;SDS011;54731;42.600;23.476;2023-11-21T08:46:39;32.63;;;17.00;;
67941;SDS011;54731;42.600;23.476;2023-11-21T08:49:04;33.03;;;15.97;;
67941;SDS011;54731;42.600;23.476;2023-11-21T08:51:29;27.50;;;14.30;;
67941;SDS011;54731;42.600;23.476;2023-11-21T08:53:54;32.60;;;15.57;;
67941;SDS011;54731;42.600;23.476;2023-11-21T08:56:20;25.70;;;14.18;;
67941;SDS011;54731;42.600;23.476;2023-11-21T08:58:45;21.80;;;12.30;;
67941;SDS011;54731;42.600;23.476;2023-11-21T09:01:11;25.97;;;12.03;;
67941;SDS011;54731;42.600;23.476;2023-11-21T09:03:36;23.93;;;13.23;;
67941;SDS011;54731;42.600;23.476;2023-11-21T09:06:01;18.77;;;10.13;;
67941;SDS011;54731;42.600;23.476;2023-11-21T09:08:27;27.00;;;10.90;;
67941;SDS011;54731;42.600;23.476;2023-11-21T09:10:52;20.07;;;11.10;;
67941;SDS011;54731;42.600;23.476;2023-11-21T09:13:17;19.10;;;10.47;;
67941;SDS011;54731;42.600;23.476;2023-11-21T09:15:43;19.87;;;11.00;;
67941;SDS011;54731;42.600;23.476;2023-11-21T09:18:09;18.08;;;11.02;;
67941;SDS011;54731;42.600;23.476;2023-11-21T09:20:34;20.70;;;11.57;;
67941;SDS011;54731;42.600;23.476;2023-11-21T09:22:59;19.37;;;12.33;;
67941;SDS011;54731;42.600;23.476;2023-11-21T09:25:24;23.20;;;13.50;;
67941;SDS011;54731;42.600;23.476;2023-11-21T09:27:50;23.20;;;14.20;;
67941;SDS011;54731;42.600;23.476;2023-11-21T09:30:15;23.60;;;13.20;;
67941;SDS011;54731;42.600;23.476;2023-11-21T09:32:40;30.50;;;17.93;;
67941;SDS011;54731;42.600;23.476;2023-11-21T09:35:06;30.77;;;18.17;;
67941;SDS011;54731;42.600;23.476;2023-11-21T09:37:31;31.48;;;17.90;;
67941;SDS011;54731;42.600;23.476;2023-11-21T09:39:57;22.93;;;13.03;;
67941;SDS011;54731;42.600;23.476;2023-11-21T09:42:27;20.30;;;11.03;;
67941;SDS011;54731;42.600;23.476;2023-11-21T09:45:05;20.85;;;11.73;;
67941;SDS011;54731;42.600;23.476;2023-11-21T09:47:53;18.65;;;10.60;;
67941;SDS011;54731;42.600;23.476;2023-11-21T09:50:20;20.40;;;10.87;;
67941;SDS011;54731;42.600;23.476;2023-11-21T09:52:49;26.98;;;15.10;;
67941;SDS011;54731;42.600;23.476;2023-11-21T09:55:27;38.77;;;20.77;;
67941;SDS011;54731;42.600;23.476;2023-11-21T09:57:53;34.63;;;17.13;;
67941;SDS011;54731;42.600;23.476;2023-11-21T10:00:20;33.17;;;18.50;;
67941;SDS011;54731;42.600;23.476;2023-11-21T10:02:47;33.53;;;17.55;;
67941;SDS011;54731;42.600;23.476;2023-11-21T10:05:12;30.70;;;16.70;;
67941;SDS011;54731;42.600;23.476;2023-11-21T10:07:38;28.80;;;15.70;;
67941;SDS011;54731;42.600;23.476;2023-11-21T10:10:05;31.70;;;14.63;;
67941;SDS011;54731;42.600;23.476;2023-11-21T10:12:32;28.15;;;13.40;;
67941;SDS011;54731;42.600;23.476;2023-11-21T10:14:57;22.98;;;12.40;;
67941;SDS011;54731;42.600;23.476;2023-11-21T10:17:24;17.75;;;11.13;;
67941;SDS011;54731;42.600;23.476;2023-11-21T10:19:50;20.55;;;12.18;;
67941;SDS011;54731;42.600;23.476;2023-11-21T10:22:16;19.97;;;11.37;;
67941;SDS011;54731;42.600;23.476;2023-11-21T10:24:41;16.63;;;9.27;;
67941;SDS011;54731;42.600;23.476;2023-11-21T10:27:07;19.97;;;11.00;;
67941;SDS011;54731;42.600;23.476;2023-11-21T10:29:32;18.50;;;9.83;;
67941;SDS011;54731;42.600;23.476;2023-11-21T10:31:58;17.15;;;10.13;;
67941;SDS011;54731;42.600;23.476;2023-11-21T10:34:24;15.90;;;9.37;;
67941;SDS011;54731;42.600;23.476;2023-11-21T10:36:49;17.60;;;10.40;;
67941;SDS011;54731;42.600;23.476;2023-11-21T10:39:18;18.73;;;9.57;;
67941;SDS011;54731;42.600;23.476;2023-11-21T10:41:45;17.45;;;9.55;;
67941;SDS011;54731;42.600;23.476;2023-11-21T10:44:10;18.98;;;10.30;;
67941;SDS011;54731;42.600;23.476;2023-11-21T10:46:36;16.57;;;9.83;;
67941;SDS011;54731;42.600;23.476;2023-11-21T10:49:01;21.40;;;11.10;;
67941;SDS011;54731;42.600;23.476;2023-11-21T10:51:26;19.77;;;10.57;;
67941;SDS011;54731;42.600;23.476;2023-11-21T10:53:52;17.50;;;9.00;;
67941;SDS011;54731;42.600;23.476;2023-11-21T10:56:17;11.87;;;6.60;;
67941;SDS011;54731;42.600;23.476;2023-11-21T10:58:43;13.18;;;6.80;;
67941;SDS011;54731;42.600;23.476;2023-11-21T11:01:10;12.90;;;7.03;;
67941;SDS011;54731;42.600;23.476;2023-11-21T11:03:35;15.18;;;7.97;;
67941;SDS011;54731;42.600;23.476;2023-11-21T11:06:02;11.23;;;6.83;;
67941;SDS011;54731;42.600;23.476;2023-11-21T11:08:27;13.85;;;7.32;;
67941;SDS011;54731;42.600;23.476;2023-11-21T11:10:53;12.20;;;6.33;;
67941;SDS011;54731;42.600;23.476;2023-11-21T11:13:19;13.68;;;7.70;;
67941;SDS011;54731;42.600;23.476;2023-11-21T11:15:47;13.57;;;7.95;;
67941;SDS011;54731;42.600;23.476;2023-11-21T11:18:12;12.83;;;7.40;;
67941;SDS011;54731;42.600;23.476;2023-11-21T11:20:40;15.60;;;7.55;;
67941;SDS011;54731;42.600;23.476;2023-11-21T11:31:42;13.07;;;6.53;;
67941;SDS011;54731;42.600;23.476;2023-11-21T11:34:26;11.88;;;7.00;;
67941;SDS011;54731;42.600;23.476;2023-11-21T11:36:58;31.00;;;12.57;;
67941;SDS011;54731;42.600;23.476;2023-11-21T11:39:30;30.85;;;13.07;;
67941;SDS011;54731;42.600;23.476;2023-11-21T11:41:56;20.88;;;11.23;;
67941;SDS011;54731;42.600;23.476;2023-11-21T11:47:12;18.75;;;10.35;;
67941;SDS011;54731;42.600;23.476;2023-11-21T11:49:38;15.43;;;9.63;;
67941;SDS011;54731;42.600;23.476;2023-11-21T11:52:43;17.42;;;9.65;;
67941;SDS011;54731;42.600;23.476;2023-11-21T11:55:10;17.27;;;9.90;;
67941;SDS011;54731;42.600;23.476;2023-11-21T11:57:37;25.97;;;14.03;;
67941;SDS011;54731;42.600;23.476;2023-11-21T12:02:48;15.00;;;9.80;;
67941;SDS011;54731;42.600;23.476;2023-11-21T12:05:20;21.48;;;12.40;;
67941;SDS011;54731;42.600;23.476;2023-11-21T12:10:18;24.87;;;11.53;;
67941;SDS011;54731;42.600;23.476;2023-11-21T12:12:45;26.63;;;12.35;;
67941;SDS011;54731;42.600;23.476;2023-11-21T12:15:14;20.77;;;9.87;;
67941;SDS011;54731;42.600;23.476;2023-11-21T12:17:41;16.65;;;7.78;;
67941;SDS011;54731;42.600;23.476;2023-11-21T12:20:07;16.23;;;8.88;;
67941;SDS011;54731;42.600;23.476;2023-11-21T12:22:33;21.20;;;10.37;;
67941;SDS011;54731;42.600;23.476;2023-11-21T12:24:58;16.53;;;8.10;;
67941;SDS011;54731;42.600;23.476;2023-11-21T12:27:23;22.03;;;9.63;;
67941;SDS011;54731;42.600;23.476;2023-11-21T12:29:48;21.98;;;12.55;;
67941;SDS011;54731;42.600;23.476;2023-11-21T12:32:14;17.03;;;8.73;;
67941;SDS011;54731;42.600;23.476;2023-11-21T12:34:39;18.83;;;9.20;;
67941;SDS011;54731;42.600;23.476;2023-11-21T12:37:04;17.67;;;10.43;;
67941;SDS011;54731;42.600;23.476;2023-11-21T12:39:30;20.87;;;10.57;;
67941;SDS011;54731;42.600;23.476;2023-11-21T12:41:55;25.20;;;11.63;;
67941;SDS011;54731;42.600;23.476;2023-11-21T12:44:20;31.70;;;14.27;;
67941;SDS011;54731;42.600;23.476;2023-11-21T12:46:46;27.13;;;13.20;;
67941;SDS011;54731;42.600;23.476;2023-11-21T12:49:11;22.23;;;11.57;;
67941;SDS011;54731;42.600;23.476;2023-11-21T12:51:37;23.20;;;12.07;;
67941;SDS011;54731;42.600;23.476;2023-11-21T12:54:03;18.50;;;11.38;;
67941;SDS011;54731;42.600;23.476;2023-11-21T12:56:28;21.63;;;12.10;;
67941;SDS011;54731;42.600;23.476;2023-11-21T12:58:54;26.67;;;13.33;;
67941;SDS011;54731;42.600;23.476;2023-11-21T13:01:19;23.55;;;13.48;;
67941;SDS011;54731;42.600;23.476;2023-11-21T13:03:48;27.17;;;14.00;;
67941;SDS011;54731;42.600;23.476;2023-11-21T13:06:14;30.00;;;17.10;;
67941;SDS011;54731;42.600;23.476;2023-11-21T13:08:40;25.27;;;14.13;;
67941;SDS011;54731;42.600;23.476;2023-11-21T13:11:05;35.28;;;17.40;;
67941;SDS011;54731;42.600;23.476;2023-11-21T13:13:31;34.88;;;19.25;;
67941;SDS011;54731;42.600;23.476;2023-11-21T13:15:57;34.10;;;18.53;;
67941;SDS011;54731;42.600;23.476;2023-11-21T13:18:27;36.63;;;21.17;;
67941;SDS011;54731;42.600;23.476;2023-11-21T13:20:53;44.55;;;21.00;;
67941;SDS011;54731;42.600;23.476;2023-11-21T13:23:24;41.55;;;23.15;;
67941;SDS011;54731;42.600;23.476;2023-11-21T13:25:50;40.93;;;21.57;;
67941;SDS011;54731;42.600;23.476;2023-11-21T13:28:16;43.90;;;22.88;;
67941;SDS011;54731;42.600;23.476;2023-11-21T13:30:41;40.58;;;20.85;;
67941;SDS011;54731;42.600;23.476;2023-11-21T13:33:07;40.92;;;20.38;;
67941;SDS011;54731;42.600;23.476;2023-11-21T13:35:33;72.33;;;32.40;;
67941;SDS011;54731;42.600;23.476;2023-11-21T13:38:04;35.42;;;19.42;;
67941;SDS011;54731;42.600;23.476;2023-11-21T13:40:30;35.67;;;16.90;;
67941;SDS011;54731;42.600;23.476;2023-11-21T13:42:55;24.60;;;13.13;;
67941;SDS011;54731;42.600;23.476;2023-11-21T13:45:21;22.23;;;12.10;;
67941;SDS011;54731;42.600;23.476;2023-11-21T13:47:47;21.93;;;11.67;;
67941;SDS011;54731;42.600;23.476;2023-11-21T13:50:12;26.98;;;15.10;;
67941;SDS011;54731;42.600;23.476;2023-11-21T13:52:38;30.30;;;14.87;;
67941;SDS011;54731;42.600;23.476;2023-11-21T13:55:03;32.87;;;19.30;;
67941;SDS011;54731;42.600;23.476;2023-11-21T13:57:28;36.10;;;19.43;;
67941;SDS011;54731;42.600;23.476;2023-11-21T13:59:54;28.37;;;15.87;;
67941;SDS011;54731;42.600;23.476;2023-11-21T14:02:20;27.88;;;16.23;;
67941;SDS011;54731;42.600;23.476;2023-11-21T14:04:45;35.40;;;16.50;;
67941;SDS011;54731;42.600;23.476;2023-11-21T14:07:11;32.80;;;17.63;;
67941;SDS011;54731;42.600;23.476;2023-11-21T14:09:36;36.20;;;20.23;;
67941;SDS011;54731;42.600;23.476;2023-11-21T14:12:01;39.43;;;20.57;;
67941;SDS011;54731;42.600;23.476;2023-11-21T14:14:27;36.40;;;21.55;;
67941;SDS011;54731;42.600;23.476;2023-11-21T14:16:53;41.73;;;24.40;;
67941;SDS011;54731;42.600;23.476;2023-11-21T14:19:18;46.05;;;25.40;;
67941;SDS011;54731;42.600;23.476;2023-11-21T14:21:44;44.27;;;25.67;;
67941;SDS011;54731;42.600;23.476;2023-11-21T14:24:10;45.90;;;25.80;;
67941;SDS011;54731;42.600;23.476;2023-11-21T14:26:36;44.00;;;25.07;;
67941;SDS011;54731;42.600;23.476;2023-11-21T14:29:01;43.03;;;25.07;;